createdAt,value
2019-04-25T00:00:21.439Z,63.48
2019-04-25T00:01:21.570Z,61.77
2019-04-25T00:02:21.321Z,62.50
2019-04-25T00:03:22.325Z,61.04
2019-04-25T00:04:21.573Z,61.77
2019-04-25T00:05:21.394Z,60.06
2019-04-25T00:06:21.528Z,60.79
2019-04-25T00:07:21.762Z,62.50
2019-04-25T00:08:21.845Z,60.79
2019-04-25T00:09:22.080Z,62.01
2019-04-25T00:10:22.321Z,62.50
2019-04-25T00:11:22.422Z,61.77
2019-04-25T00:12:22.516Z,61.04
2019-04-25T00:13:22.716Z,63.96
2019-04-25T00:14:22.939Z,61.77
2019-04-25T00:15:23.149Z,62.01
2019-04-25T00:16:23.405Z,61.77
2019-04-25T00:17:23.452Z,59.57
2019-04-25T00:18:23.659Z,62.01
2019-04-25T00:19:23.870Z,62.26
2019-04-25T00:20:24.085Z,62.01
2019-04-25T00:21:24.305Z,62.01
2019-04-25T00:22:24.445Z,62.50
2019-04-25T00:23:24.505Z,59.81
2019-04-25T00:24:24.777Z,63.72
2019-04-25T00:25:24.860Z,62.26
2019-04-25T00:26:25.068Z,62.26
2019-04-25T00:27:25.251Z,61.77
2019-04-25T00:28:25.505Z,61.28
2019-04-25T00:29:25.629Z,59.08
2019-04-25T00:30:25.739Z,63.23
2019-04-25T00:31:26.123Z,62.74
2019-04-25T00:32:26.038Z,62.74
2019-04-25T00:33:26.159Z,62.74
2019-04-25T00:34:26.931Z,62.50
2019-04-25T00:35:26.484Z,62.50
2019-04-25T00:36:26.717Z,62.26
2019-04-25T00:37:26.831Z,61.77
2019-04-25T00:38:26.917Z,62.01
2019-04-25T00:39:27.148Z,61.52
2019-04-25T00:40:27.249Z,62.01
2019-04-25T00:41:27.333Z,62.01
2019-04-25T00:42:27.537Z,62.99
2019-04-25T00:43:27.770Z,61.77
2019-04-25T00:44:27.857Z,62.01
2019-04-25T00:45:28.074Z,62.50
2019-04-25T00:46:28.272Z,62.99
2019-04-25T00:47:28.485Z,62.01
2019-04-25T00:48:28.737Z,62.26
2019-04-25T00:49:28.821Z,62.74
2019-04-25T00:50:29.030Z,62.74
2019-04-25T00:51:29.120Z,62.99
2019-04-25T00:52:29.342Z,62.74
2019-04-25T00:53:29.559Z,61.77
2019-04-25T00:54:31.197Z,61.52
2019-04-25T00:55:31.463Z,62.01
2019-04-25T00:56:30.143Z,62.26
2019-04-25T00:57:31.926Z,61.77
2019-04-25T00:58:31.506Z,62.74
2019-04-25T00:59:32.062Z,62.74
2019-04-25T01:00:32.590Z,61.77
2019-04-25T01:01:31.710Z,62.26
2019-04-25T01:02:31.482Z,62.26
2019-04-25T01:03:31.755Z,62.50
2019-04-25T01:04:31.607Z,62.50
2019-04-25T01:05:31.702Z,62.74
2019-04-25T01:06:31.984Z,62.01
2019-04-25T01:07:34.293Z,62.50
2019-04-25T01:08:32.265Z,62.50
2019-04-25T01:09:32.483Z,62.26
2019-04-25T01:10:32.678Z,62.26
2019-04-25T01:11:32.879Z,62.99
2019-04-25T01:12:33.066Z,62.99
2019-04-25T01:13:33.256Z,62.74
2019-04-25T01:14:33.780Z,62.01
2019-04-25T01:15:33.673Z,62.74
2019-04-25T01:16:33.880Z,62.99
2019-04-25T01:17:34.075Z,62.74
2019-04-25T01:18:35.458Z,62.74
2019-04-25T01:19:34.535Z,62.74
2019-04-25T01:20:34.592Z,62.74
2019-04-25T01:21:34.779Z,62.50
2019-04-25T01:22:34.919Z,62.99
2019-04-25T01:23:34.994Z,62.50
2019-04-25T01:24:35.196Z,62.74
2019-04-25T01:25:41.058Z,62.74
2019-04-25T01:26:35.668Z,62.74
2019-04-25T01:27:35.769Z,62.50
2019-04-25T01:28:35.950Z,61.77
2019-04-25T01:29:36.199Z,62.50
2019-04-25T01:30:36.345Z,62.26
2019-04-25T01:31:36.465Z,61.52
2019-04-25T01:32:36.542Z,61.52
2019-04-25T01:33:36.760Z,61.77
2019-04-25T01:34:36.966Z,61.04
2019-04-25T01:35:37.143Z,61.77
2019-04-25T01:36:37.366Z,60.79
2019-04-25T01:37:37.445Z,60.55
2019-04-25T01:38:37.642Z,60.79
2019-04-25T01:39:37.850Z,60.06
2019-04-25T01:40:37.998Z,59.81
2019-04-25T01:41:38.071Z,60.06
2019-04-25T01:42:38.263Z,61.04
2019-04-25T01:43:38.471Z,60.55
2019-04-25T01:44:38.655Z,60.55
2019-04-25T01:45:38.836Z,62.01
2019-04-25T01:46:39.019Z,61.28
2019-04-25T01:47:39.201Z,61.52
2019-04-25T01:48:39.432Z,60.55
2019-04-25T01:49:39.498Z,60.55
2019-04-25T01:50:39.732Z,61.28
2019-04-25T01:51:39.806Z,61.52
2019-04-25T01:52:40.016Z,61.28
2019-04-25T01:53:40.210Z,61.28
2019-04-25T01:54:40.453Z,61.04
2019-04-25T01:55:53.024Z,61.28
2019-04-25T01:56:40.731Z,60.55
2019-04-25T01:57:40.961Z,61.04
2019-04-25T01:58:41.074Z,60.06
2019-04-25T01:59:41.142Z,61.77
2019-04-25T02:00:41.346Z,62.50
2019-04-25T02:01:41.564Z,61.77
2019-04-25T02:02:41.650Z,60.06
2019-04-25T02:03:41.838Z,60.79
2019-04-25T02:04:42.020Z,62.26
2019-04-25T02:05:43.816Z,62.50
2019-04-25T02:06:43.411Z,61.52
2019-04-25T02:07:44.345Z,61.28
2019-04-25T02:08:44.029Z,60.79
2019-04-25T02:09:43.556Z,61.52
2019-04-25T02:10:44.006Z,61.28
2019-04-25T02:11:43.932Z,61.04
2019-04-25T02:12:43.607Z,61.04
2019-04-25T02:13:43.780Z,61.77
2019-04-25T02:14:43.654Z,62.99
2019-04-25T02:15:43.877Z,61.52
2019-04-25T02:16:44.101Z,61.77
2019-04-25T02:17:44.306Z,61.28
2019-04-25T02:18:44.507Z,60.79
2019-04-25T02:19:44.746Z,61.28
2019-04-25T02:20:44.838Z,61.04
2019-04-25T02:21:44.901Z,61.04
2019-04-25T02:22:45.114Z,61.04
2019-04-25T02:23:45.304Z,61.52
2019-04-25T02:24:45.569Z,61.52
2019-04-25T02:25:45.682Z,61.04
2019-04-25T02:26:45.773Z,61.04
2019-04-25T02:27:46.103Z,61.52
2019-04-25T02:28:46.058Z,61.77
2019-04-25T02:29:46.275Z,62.50
2019-04-25T02:30:46.404Z,61.04
2019-04-25T02:31:46.593Z,62.01
2019-04-25T02:32:46.824Z,61.77
2019-04-25T02:33:47.001Z,61.28
2019-04-25T02:34:47.090Z,61.52
2019-04-25T02:35:47.284Z,62.01
2019-04-25T02:36:47.511Z,61.52
2019-04-25T02:37:47.585Z,62.01
2019-04-25T02:38:47.796Z,61.04
2019-04-25T02:39:48.021Z,61.28
2019-04-25T02:40:48.961Z,61.52
2019-04-25T02:41:48.299Z,60.55
2019-04-25T02:42:48.416Z,62.26
2019-04-25T02:43:48.498Z,62.26
2019-04-25T02:44:48.738Z,61.77
2019-04-25T02:45:48.874Z,61.77
2019-04-25T02:46:48.986Z,62.74
2019-04-25T02:47:49.096Z,61.77
2019-04-25T02:48:49.243Z,62.01
2019-04-25T02:49:49.320Z,61.28
2019-04-25T02:50:49.523Z,62.01
2019-04-25T02:51:49.766Z,62.50
2019-04-25T02:52:49.863Z,62.01
2019-04-25T02:53:49.922Z,61.52
2019-04-25T02:54:50.178Z,61.77
2019-04-25T02:55:50.233Z,61.77
2019-04-25T02:56:50.475Z,62.26
2019-04-25T02:57:50.554Z,61.52
2019-04-25T02:58:50.766Z,61.52
2019-04-25T02:59:50.898Z,61.04
2019-04-25T03:00:59.789Z,61.04
2019-04-25T03:01:51.119Z,61.52
2019-04-25T03:02:51.311Z,62.99
2019-04-25T03:03:51.537Z,61.04
2019-04-25T03:04:51.715Z,62.26
2019-04-25T03:05:51.791Z,62.50
2019-04-25T03:06:51.893Z,62.50
2019-04-25T03:07:54.268Z,62.01
2019-04-25T03:08:54.305Z,62.26
2019-04-25T03:09:54.623Z,62.50
2019-04-25T03:10:54.306Z,62.26
2019-04-25T03:11:54.644Z,62.26
2019-04-25T03:12:54.430Z,62.26
2019-04-25T03:13:54.579Z,62.99
2019-04-25T03:14:54.980Z,62.01
2019-04-25T03:15:55.548Z,62.50
2019-04-25T03:16:54.343Z,62.74
2019-04-25T03:17:54.690Z,62.74
2019-04-25T03:18:54.485Z,62.50
2019-04-25T03:19:54.432Z,62.50
2019-04-25T03:20:54.831Z,62.99
2019-04-25T03:21:55.058Z,63.72
2019-04-25T03:22:54.870Z,63.72
2019-04-25T03:23:55.057Z,62.50
2019-04-25T03:24:55.115Z,62.26
2019-04-25T03:25:55.178Z,62.01
2019-04-25T03:26:55.395Z,62.01
2019-04-25T03:27:55.464Z,61.77
2019-04-25T03:28:55.626Z,62.74
2019-04-25T03:29:55.699Z,61.52
2019-04-25T03:30:57.223Z,61.77
2019-04-25T03:31:56.421Z,63.23
2019-04-25T03:32:56.435Z,63.48
2019-04-25T03:33:56.459Z,61.77
2019-04-25T03:34:56.697Z,62.01
2019-04-25T03:35:56.801Z,62.50
2019-04-25T03:36:56.937Z,62.74
2019-04-25T03:37:57.122Z,62.50
2019-04-25T03:38:57.193Z,61.77
2019-04-25T03:39:57.379Z,62.26
2019-04-25T03:40:57.503Z,62.74
2019-04-25T03:41:57.731Z,62.50
2019-04-25T03:42:57.938Z,62.01
2019-04-25T03:43:58.162Z,63.23
2019-04-25T03:44:58.237Z,62.50
2019-04-25T03:45:58.467Z,62.50
2019-04-25T03:46:58.686Z,62.26
2019-04-25T03:47:58.762Z,62.01
2019-04-25T03:48:58.966Z,62.74
2019-04-25T03:49:59.161Z,62.01
2019-04-25T03:50:59.360Z,62.50
2019-04-25T03:51:59.549Z,62.50
2019-04-25T03:52:59.746Z,62.50
2019-04-25T03:53:59.938Z,62.74
2019-04-25T03:55:00.123Z,62.50
2019-04-25T03:56:00.343Z,62.50
2019-04-25T03:57:00.411Z,61.77
2019-04-25T03:58:00.617Z,62.01
2019-04-25T03:59:00.830Z,61.77
2019-04-25T04:00:01.036Z,62.01
2019-04-25T04:01:01.276Z,61.77
2019-04-25T04:02:01.380Z,62.01
2019-04-25T04:03:01.504Z,62.50
2019-04-25T04:04:04.309Z,62.74
2019-04-25T04:05:04.583Z,62.74
2019-04-25T04:06:01.860Z,61.77
2019-04-25T04:07:05.789Z,61.77
2019-04-25T04:08:04.274Z,62.26
2019-04-25T04:09:04.670Z,64.94
2019-04-25T04:10:04.484Z,64.45
2019-04-25T04:11:05.002Z,66.65
2019-04-25T04:12:04.337Z,64.94
2019-04-25T04:13:05.132Z,62.50
2019-04-25T04:14:04.892Z,62.99
2019-04-25T04:15:04.731Z,62.99
2019-04-25T04:16:05.179Z,62.74
2019-04-25T04:17:05.085Z,62.74
2019-04-25T04:18:05.153Z,62.50
2019-04-25T04:19:05.673Z,62.50
2019-04-25T04:20:05.614Z,62.01
2019-04-25T04:21:05.402Z,62.50
2019-04-25T04:22:05.438Z,62.50
2019-04-25T04:23:05.616Z,62.50
2019-04-25T04:24:05.231Z,62.74
2019-04-25T04:25:05.923Z,62.26
2019-04-25T04:26:05.377Z,62.01
2019-04-25T04:27:06.711Z,62.50
2019-04-25T04:28:06.216Z,63.23
2019-04-25T04:29:05.806Z,62.74
2019-04-25T04:30:06.477Z,62.26
2019-04-25T04:31:06.633Z,63.23
2019-04-25T04:32:06.915Z,62.50
2019-04-25T04:33:06.978Z,63.48
2019-04-25T04:34:07.129Z,62.01
2019-04-25T04:35:07.298Z,62.99
2019-04-25T04:36:07.419Z,62.26
2019-04-25T04:37:07.623Z,62.26
2019-04-25T04:38:08.038Z,63.23
2019-04-25T04:39:07.762Z,62.74
2019-04-25T04:40:08.056Z,62.01
2019-04-25T04:41:08.090Z,65.92
2019-04-25T04:42:08.370Z,62.99
2019-04-25T04:43:08.065Z,62.26
2019-04-25T04:44:08.332Z,63.23
2019-04-25T04:45:08.480Z,63.23
2019-04-25T04:46:08.662Z,61.77
2019-04-25T04:47:08.555Z,62.01
2019-04-25T04:48:08.745Z,62.26
2019-04-25T04:49:08.960Z,61.77
2019-04-25T04:50:09.116Z,62.26
2019-04-25T04:51:09.175Z,62.26
2019-04-25T04:52:09.370Z,62.50
2019-04-25T04:53:09.438Z,64.45
2019-04-25T04:54:09.620Z,62.01
2019-04-25T04:55:11.227Z,62.74
2019-04-25T04:56:11.364Z,62.01
2019-04-25T04:57:25.226Z,62.50
2019-04-25T04:58:11.228Z,62.26
2019-04-25T04:59:10.962Z,62.01
2019-04-25T05:00:11.069Z,61.52
2019-04-25T05:01:11.118Z,61.52
2019-04-25T05:02:11.509Z,61.77
2019-04-25T05:03:11.225Z,64.45
2019-04-25T05:04:11.235Z,61.04
2019-04-25T05:05:12.045Z,61.52
2019-04-25T05:06:11.664Z,61.52
2019-04-25T05:07:11.875Z,61.52
2019-04-25T05:08:12.985Z,60.79
2019-04-25T05:09:14.340Z,61.28
2019-04-25T05:10:14.509Z,60.79
2019-04-25T05:11:15.453Z,61.28
2019-04-25T05:12:15.262Z,61.28
2019-04-25T05:13:15.773Z,61.77
2019-04-25T05:14:15.354Z,61.52
2019-04-25T05:15:16.908Z,62.99
2019-04-25T05:16:15.070Z,62.74
2019-04-25T05:17:15.202Z,61.28
2019-04-25T05:18:20.658Z,62.01
2019-04-25T05:19:16.755Z,63.23
2019-04-25T05:20:16.009Z,63.48
2019-04-25T05:21:16.203Z,63.72
2019-04-25T05:22:16.838Z,62.99
2019-04-25T05:23:15.978Z,63.48
2019-04-25T05:24:16.410Z,63.48
2019-04-25T05:25:16.673Z,71.29
2019-04-25T05:26:16.321Z,71.78
2019-04-25T05:27:30.564Z,63.48
2019-04-25T05:28:17.314Z,62.99
2019-04-25T05:29:20.084Z,63.23
2019-04-25T05:30:16.590Z,63.48
2019-04-25T05:31:16.914Z,62.99
2019-04-25T05:32:17.058Z,62.26
2019-04-25T05:33:18.572Z,63.23
2019-04-25T05:34:17.165Z,60.06
2019-04-25T05:35:16.494Z,59.57
2019-04-25T05:36:17.531Z,58.84
2019-04-25T05:37:18.048Z,58.35
2019-04-25T05:38:18.026Z,59.81
2019-04-25T05:39:18.060Z,59.33
2019-04-25T05:40:18.257Z,59.08
2019-04-25T05:41:20.281Z,59.33
2019-04-25T05:42:18.522Z,59.57
2019-04-25T05:43:20.595Z,60.55
2019-04-25T05:44:19.352Z,62.26
2019-04-25T05:45:18.936Z,58.11
2019-04-25T05:46:19.017Z,60.79
2019-04-25T05:47:20.518Z,59.81
2019-04-25T05:48:19.016Z,61.04
2019-04-25T05:49:19.306Z,59.81
2019-04-25T05:50:19.917Z,58.35
2019-04-25T05:51:19.553Z,64.45
2019-04-25T05:52:19.922Z,59.57
2019-04-25T05:53:19.852Z,58.59
2019-04-25T05:54:20.596Z,60.30
2019-04-25T05:55:21.104Z,58.84
2019-04-25T05:56:20.221Z,60.55
2019-04-25T05:57:20.439Z,58.84
2019-04-25T05:58:20.651Z,59.57
2019-04-25T05:59:21.797Z,58.59
2019-04-25T06:00:21.044Z,62.74
2019-04-25T06:01:21.158Z,60.06
2019-04-25T06:02:21.577Z,58.84
2019-04-25T06:03:21.462Z,58.59
2019-04-25T06:04:21.538Z,62.26
2019-04-25T06:05:23.382Z,60.79
2019-04-25T06:06:23.379Z,59.33
2019-04-25T06:07:22.017Z,59.33
2019-04-25T06:08:22.126Z,58.11
2019-04-25T06:09:24.028Z,56.40
2019-04-25T06:10:22.421Z,58.35
2019-04-25T06:11:23.921Z,59.33
2019-04-25T06:12:23.730Z,59.57
2019-04-25T06:13:23.855Z,59.08
2019-04-25T06:14:24.066Z,57.62
2019-04-25T06:15:24.028Z,58.35
2019-04-25T06:16:24.219Z,56.40
2019-04-25T06:17:24.573Z,65.19
2019-04-25T06:18:24.881Z,59.08
2019-04-25T06:19:25.249Z,57.13
2019-04-25T06:20:24.658Z,60.30
2019-04-25T06:21:24.596Z,60.06
2019-04-25T06:22:24.685Z,58.59
2019-04-25T06:23:25.636Z,58.35
2019-04-25T06:24:25.895Z,56.15
2019-04-25T06:25:32.179Z,65.43
2019-04-25T06:26:34.734Z,60.55
2019-04-25T06:27:25.867Z,61.52
2019-04-25T06:28:26.158Z,58.59
2019-04-25T06:29:26.030Z,61.04
2019-04-25T06:30:26.000Z,59.81
2019-04-25T06:31:26.858Z,74.71
2019-04-25T06:32:26.874Z,56.88
2019-04-25T06:33:27.008Z,56.40
2019-04-25T06:34:28.494Z,56.40
2019-04-25T06:35:27.511Z,58.59
2019-04-25T06:36:27.120Z,56.88
2019-04-25T06:37:27.023Z,59.81
2019-04-25T06:38:27.529Z,62.01
2019-04-25T06:39:27.934Z,63.72
2019-04-25T06:40:29.763Z,63.48
2019-04-25T06:41:28.177Z,59.81
2019-04-25T06:42:27.663Z,60.30
2019-04-25T06:43:28.047Z,57.37
2019-04-25T06:44:29.117Z,57.37
2019-04-25T06:45:28.295Z,58.84
2019-04-25T06:46:28.862Z,58.84
2019-04-25T06:47:29.531Z,61.28
2019-04-25T06:48:29.027Z,56.88
2019-04-25T06:49:29.387Z,55.91
2019-04-25T06:50:29.328Z,57.13
2019-04-25T06:51:29.947Z,59.81
2019-04-25T06:52:31.818Z,57.86
2019-04-25T06:53:30.544Z,56.15
2019-04-25T06:54:30.179Z,56.15
2019-04-25T06:55:30.365Z,58.35
2019-04-25T06:56:30.817Z,58.59
2019-04-25T06:57:30.737Z,58.11
2019-04-25T06:58:32.237Z,58.35
2019-04-25T06:59:31.116Z,57.13
2019-04-25T07:00:36.338Z,65.92
2019-04-25T07:01:31.494Z,62.01
2019-04-25T07:02:31.697Z,61.77
2019-04-25T07:03:31.907Z,62.01
2019-04-25T07:04:33.675Z,61.77
2019-04-25T07:05:35.853Z,68.36
2019-04-25T07:06:33.851Z,65.67
2019-04-25T07:07:34.889Z,67.38
2019-04-25T07:08:33.324Z,59.33
2019-04-25T07:09:34.959Z,58.84
2019-04-25T07:10:33.898Z,53.47
2019-04-25T07:11:34.894Z,54.69
2019-04-25T07:12:34.858Z,55.42
2019-04-25T07:13:38.297Z,53.96
2019-04-25T07:14:36.800Z,56.15
2019-04-25T07:15:35.186Z,57.13
2019-04-25T07:16:34.702Z,55.18
2019-04-25T07:17:35.039Z,54.93
2019-04-25T07:18:36.987Z,54.93
2019-04-25T07:19:35.569Z,56.64
2019-04-25T07:20:35.538Z,61.04
2019-04-25T07:21:35.642Z,57.37
2019-04-25T07:22:36.193Z,57.62
2019-04-25T07:23:35.818Z,58.35
2019-04-25T07:24:35.825Z,59.33
2019-04-25T07:25:36.714Z,58.35
2019-04-25T07:26:39.538Z,70.56
2019-04-25T07:27:36.323Z,58.35
2019-04-25T07:28:36.923Z,58.59
2019-04-25T07:29:36.647Z,58.11
2019-04-25T07:30:48.367Z,52.49
2019-04-25T07:31:37.036Z,53.96
2019-04-25T07:32:37.114Z,56.40
2019-04-25T07:33:37.303Z,56.88
2019-04-25T07:34:37.502Z,52.25
2019-04-25T07:35:37.869Z,51.51
2019-04-25T07:36:37.869Z,56.88
2019-04-25T07:37:41.549Z,56.88
2019-04-25T07:38:38.181Z,55.42
2019-04-25T07:39:38.390Z,52.00
2019-04-25T07:40:38.599Z,57.13
2019-04-25T07:41:38.830Z,57.37
2019-04-25T07:42:38.938Z,56.40
2019-04-25T07:43:39.255Z,54.44
2019-04-25T07:44:49.760Z,53.22
2019-04-25T07:45:39.640Z,55.91
2019-04-25T07:46:40.334Z,63.23
2019-04-25T07:47:40.371Z,52.25
2019-04-25T07:48:39.871Z,58.11
2019-04-25T07:49:40.094Z,62.01
2019-04-25T07:50:40.173Z,57.13
2019-04-25T07:51:40.629Z,57.37
2019-04-25T07:52:40.408Z,58.35
2019-04-25T07:53:40.622Z,59.33
2019-04-25T07:54:40.845Z,60.55
2019-04-25T07:55:43.238Z,53.71
2019-04-25T07:56:41.148Z,59.33
2019-04-25T07:57:42.120Z,57.62
2019-04-25T07:58:49.602Z,56.88
2019-04-25T07:59:43.648Z,55.66
2019-04-25T08:00:41.769Z,57.62
2019-04-25T08:01:43.489Z,55.66
2019-04-25T08:02:43.557Z,55.91
2019-04-25T08:03:45.030Z,64.45
2019-04-25T08:04:44.206Z,57.13
2019-04-25T08:05:44.010Z,55.91
2019-04-25T08:06:44.323Z,56.64
2019-04-25T08:07:43.739Z,52.25
2019-04-25T08:08:44.186Z,51.27
2019-04-25T08:09:44.304Z,55.66
2019-04-25T08:10:45.306Z,56.40
2019-04-25T08:11:43.509Z,56.64
2019-04-25T08:12:44.410Z,57.13
2019-04-25T08:13:43.875Z,55.42
2019-04-25T08:14:45.897Z,56.64
2019-04-25T08:15:44.307Z,55.18
2019-04-25T08:16:44.575Z,56.64
2019-04-25T08:17:44.700Z,56.88
2019-04-25T08:18:44.782Z,56.40
2019-04-25T08:19:45.014Z,55.91
2019-04-25T08:20:46.371Z,56.15
2019-04-25T08:21:45.342Z,57.86
2019-04-25T08:22:55.725Z,55.66
2019-04-25T08:23:47.321Z,57.13
2019-04-25T08:24:46.130Z,61.52
2019-04-25T08:25:46.102Z,55.91
2019-04-25T08:26:46.198Z,55.91
2019-04-25T08:27:46.446Z,59.81
2019-04-25T08:28:55.019Z,56.88
2019-04-25T08:29:46.813Z,56.64
2019-04-25T08:30:46.901Z,55.91
2019-04-25T08:31:47.122Z,55.18
2019-04-25T08:32:47.339Z,55.66
2019-04-25T08:33:47.564Z,54.44
2019-04-25T08:34:47.872Z,54.44
2019-04-25T08:36:03.386Z,50.54
2019-04-25T08:36:48.154Z,51.76
2019-04-25T08:37:48.385Z,57.37
2019-04-25T08:38:48.525Z,55.42
2019-04-25T08:39:48.667Z,55.42
2019-04-25T08:40:48.791Z,55.42
2019-04-25T08:41:48.869Z,57.62
2019-04-25T08:42:49.072Z,55.91
2019-04-25T08:43:49.235Z,57.37
2019-04-25T08:44:49.684Z,56.40
2019-04-25T08:45:49.798Z,56.40
2019-04-25T08:46:49.774Z,55.66
2019-04-25T08:47:49.938Z,55.66
2019-04-25T08:48:50.083Z,56.64
2019-04-25T08:49:50.135Z,56.15
2019-04-25T08:50:50.354Z,55.91
2019-04-25T08:51:50.594Z,55.42
2019-04-25T08:52:50.699Z,56.15
2019-04-25T08:53:50.956Z,56.40
2019-04-25T08:54:51.093Z,55.66
2019-04-25T08:55:51.348Z,56.40
2019-04-25T08:56:53.119Z,55.66
2019-04-25T08:57:51.881Z,56.40
2019-04-25T08:59:03.288Z,56.88
2019-04-25T08:59:52.905Z,55.42
2019-04-25T09:00:59.075Z,55.66
2019-04-25T09:01:53.572Z,56.88
2019-04-25T09:02:52.433Z,55.91
2019-04-25T09:03:53.889Z,55.42
2019-04-25T09:04:54.066Z,55.66
2019-04-25T09:05:53.577Z,55.91
2019-04-25T09:06:53.675Z,58.84
2019-04-25T09:07:54.398Z,56.15
2019-04-25T09:08:54.018Z,56.15
2019-04-25T09:09:53.618Z,53.71
2019-04-25T09:10:53.871Z,59.08
2019-04-25T09:11:54.388Z,55.18
2019-04-25T09:12:54.167Z,55.18
2019-04-25T09:13:54.286Z,56.15
2019-04-25T09:14:54.530Z,54.44
2019-04-25T09:15:54.826Z,54.93
2019-04-25T09:16:54.911Z,55.18
2019-04-25T09:17:55.087Z,54.69
2019-04-25T09:18:55.365Z,55.66
2019-04-25T09:19:56.487Z,54.44
2019-04-25T09:20:55.696Z,56.88
2019-04-25T09:21:55.822Z,56.88
2019-04-25T09:22:56.109Z,55.42
2019-04-25T09:23:56.892Z,55.18
2019-04-25T09:24:56.762Z,56.40
2019-04-25T09:25:57.808Z,60.79
2019-04-25T09:26:59.541Z,55.66
2019-04-25T09:27:58.227Z,55.91
2019-04-25T09:28:57.801Z,60.55
2019-04-25T09:29:57.352Z,56.88
2019-04-25T09:30:58.116Z,58.84
2019-04-25T09:31:59.231Z,58.11
2019-04-25T09:32:57.633Z,59.08
2019-04-25T09:33:57.900Z,56.88
2019-04-25T09:34:58.038Z,54.93
2019-04-25T09:35:58.301Z,55.91
2019-04-25T09:36:58.360Z,55.66
2019-04-25T09:37:58.567Z,55.66
2019-04-25T09:38:59.655Z,55.91
2019-04-25T09:39:59.556Z,58.11
2019-04-25T09:41:00.230Z,56.15
2019-04-25T09:42:00.214Z,56.15
2019-04-25T09:43:00.431Z,55.91
2019-04-25T09:44:00.880Z,55.18
2019-04-25T09:45:01.529Z,58.84
2019-04-25T09:46:01.163Z,57.62
2019-04-25T09:47:00.954Z,57.86
2019-04-25T09:48:03.118Z,56.88
2019-04-25T09:49:01.394Z,55.42
2019-04-25T09:50:02.019Z,57.13
2019-04-25T09:51:03.526Z,55.66
2019-04-25T09:52:03.356Z,58.59
2019-04-25T09:53:01.996Z,58.59
2019-04-25T09:54:03.494Z,57.37
2019-04-25T09:55:03.489Z,56.40
2019-04-25T09:56:04.092Z,56.15
2019-04-25T09:57:03.742Z,55.66
2019-04-25T09:58:03.994Z,56.15
2019-04-25T09:59:03.692Z,56.15
2019-04-25T10:00:03.650Z,56.88
2019-04-25T10:01:03.839Z,55.18
2019-04-25T10:02:02.805Z,57.13
2019-04-25T10:03:04.510Z,55.66
2019-04-25T10:04:03.204Z,55.66
2019-04-25T10:05:04.470Z,56.40
2019-04-25T10:06:03.617Z,57.13
2019-04-25T10:07:03.811Z,56.88
2019-04-25T10:08:04.018Z,57.37
2019-04-25T10:09:05.005Z,57.86
2019-04-25T10:10:04.677Z,58.35
2019-04-25T10:11:04.625Z,56.40
2019-04-25T10:12:04.823Z,57.13
2019-04-25T10:13:06.587Z,56.88
2019-04-25T10:14:05.191Z,56.88
2019-04-25T10:15:05.396Z,56.15
2019-04-25T10:16:05.584Z,54.93
2019-04-25T10:17:05.764Z,54.44
2019-04-25T10:18:05.950Z,53.71
2019-04-25T10:19:06.153Z,58.59
2019-04-25T10:20:06.471Z,54.69
2019-04-25T10:21:06.535Z,55.18
2019-04-25T10:22:06.749Z,55.18
2019-04-25T10:23:06.941Z,55.91
2019-04-25T10:24:07.142Z,55.42
2019-04-25T10:25:07.316Z,56.64
2019-04-25T10:26:07.513Z,56.15
2019-04-25T10:27:07.707Z,55.18
2019-04-25T10:28:07.890Z,60.55
2019-04-25T10:29:08.072Z,57.62
2019-04-25T10:30:16.779Z,54.93
2019-04-25T10:31:08.437Z,57.13
2019-04-25T10:32:08.643Z,56.40
2019-04-25T10:33:08.825Z,57.62
2019-04-25T10:34:09.011Z,54.93
2019-04-25T10:35:09.203Z,55.66
2019-04-25T10:36:09.383Z,55.42
2019-04-25T10:37:09.582Z,59.81
2019-04-25T10:38:09.780Z,56.64
2019-04-25T10:39:11.126Z,57.13
2019-04-25T10:40:10.154Z,55.66
2019-04-25T10:41:10.343Z,56.40
2019-04-25T10:42:10.534Z,55.66
2019-04-25T10:43:10.716Z,55.42
2019-04-25T10:44:10.904Z,58.59
2019-04-25T10:45:21.222Z,60.79
2019-04-25T10:46:11.527Z,55.42
2019-04-25T10:47:11.470Z,55.66
2019-04-25T10:48:13.577Z,55.66
2019-04-25T10:49:11.859Z,58.11
2019-04-25T10:50:13.515Z,57.37
2019-04-25T10:51:13.911Z,57.62
2019-04-25T10:52:13.943Z,56.40
2019-04-25T10:53:12.595Z,57.13
2019-04-25T10:54:14.428Z,56.40
2019-04-25T10:55:14.237Z,56.64
2019-04-25T10:56:14.105Z,58.11
2019-04-25T10:57:13.357Z,57.13
2019-04-25T10:58:14.400Z,68.12
2019-04-25T10:59:14.465Z,69.58
2019-04-25T11:00:13.879Z,56.64
2019-04-25T11:01:15.315Z,56.15
2019-04-25T11:02:15.292Z,58.11
2019-04-25T11:03:14.542Z,57.13
2019-04-25T11:04:14.675Z,57.13
2019-04-25T11:05:14.897Z,57.62
2019-04-25T11:06:15.115Z,57.86
2019-04-25T11:07:15.531Z,57.37
2019-04-25T11:08:16.884Z,57.37
2019-04-25T11:09:15.681Z,57.62
2019-04-25T11:10:15.880Z,58.11
2019-04-25T11:11:16.076Z,58.59
2019-04-25T11:12:16.263Z,58.59
2019-04-25T11:13:16.429Z,58.35
2019-04-25T11:14:16.607Z,57.62
2019-04-25T11:15:16.818Z,60.06
2019-04-25T11:16:17.006Z,59.33
2019-04-25T11:17:17.184Z,59.33
2019-04-25T11:18:17.380Z,57.86
2019-04-25T11:19:17.585Z,59.08
2019-04-25T11:20:17.822Z,58.59
2019-04-25T11:21:18.044Z,59.81
2019-04-25T11:22:18.115Z,57.86
2019-04-25T11:23:18.340Z,62.26
2019-04-25T11:24:18.554Z,57.37
2019-04-25T11:25:18.787Z,58.11
2019-04-25T11:26:18.994Z,62.74
2019-04-25T11:27:19.177Z,57.37
2019-04-25T11:28:19.367Z,59.08
2019-04-25T11:29:19.556Z,58.84
2019-04-25T11:30:19.770Z,58.84
2019-04-25T11:31:19.981Z,57.86
2019-04-25T11:32:20.180Z,57.86
2019-04-25T11:33:20.389Z,57.86
2019-04-25T11:34:20.668Z,58.11
2019-04-25T11:35:20.853Z,58.35
2019-04-25T11:36:21.074Z,57.62
2019-04-25T11:37:21.340Z,58.11
2019-04-25T11:38:21.524Z,58.11
2019-04-25T11:39:21.584Z,58.59
2019-04-25T11:40:23.691Z,60.55
2019-04-25T11:41:22.224Z,59.33
2019-04-25T11:42:23.322Z,57.62
2019-04-25T11:43:22.043Z,58.84
2019-04-25T11:44:22.274Z,58.11
2019-04-25T11:45:22.431Z,57.62
2019-04-25T11:46:24.101Z,57.62
2019-04-25T11:47:24.274Z,56.64
2019-04-25T11:48:23.831Z,58.84
2019-04-25T11:49:24.789Z,58.35
2019-04-25T11:50:24.898Z,56.88
2019-04-25T11:51:24.030Z,56.88
2019-04-25T11:52:28.267Z,59.33
2019-04-25T11:53:25.053Z,59.33
2019-04-25T11:54:24.387Z,57.37
2019-04-25T11:55:24.234Z,58.11
2019-04-25T11:56:24.689Z,58.11
2019-04-25T11:57:24.697Z,58.59
2019-04-25T11:58:24.901Z,58.11
2019-04-25T11:59:25.122Z,58.84
2019-04-25T12:00:25.552Z,57.13
2019-04-25T12:01:25.728Z,57.86
2019-04-25T12:02:25.715Z,59.08
2019-04-25T12:03:25.941Z,59.08
2019-04-25T12:04:26.077Z,61.04
2019-04-25T12:05:26.292Z,60.06
2019-04-25T12:06:27.040Z,60.30
2019-04-25T12:07:27.099Z,58.84
2019-04-25T12:08:27.140Z,60.06
2019-04-25T12:09:27.203Z,59.57
2019-04-25T12:10:27.390Z,59.08
2019-04-25T12:11:27.504Z,58.59
2019-04-25T12:12:27.653Z,59.33
2019-04-25T12:13:27.901Z,59.33
2019-04-25T12:14:27.881Z,58.84
2019-04-25T12:15:28.125Z,61.04
2019-04-25T12:16:28.328Z,58.11
2019-04-25T12:17:28.645Z,58.11
2019-04-25T12:18:28.642Z,60.55
2019-04-25T12:19:35.853Z,59.08
2019-04-25T12:20:29.471Z,59.57
2019-04-25T12:21:29.343Z,59.08
2019-04-25T12:22:29.371Z,67.63
2019-04-25T12:23:29.334Z,58.84
2019-04-25T12:24:29.843Z,60.55
2019-04-25T12:25:30.102Z,59.33
2019-04-25T12:26:30.238Z,57.86
2019-04-25T12:27:30.183Z,58.59
2019-04-25T12:28:30.276Z,59.33
2019-04-25T12:29:30.769Z,57.62
2019-04-25T12:30:38.268Z,57.62
2019-04-25T12:31:31.034Z,59.08
2019-04-25T12:32:30.956Z,58.84
2019-04-25T12:33:31.388Z,58.59
2019-04-25T12:34:31.421Z,60.06
2019-04-25T12:35:33.212Z,58.35
2019-04-25T12:36:31.789Z,59.08
2019-04-25T12:37:31.842Z,60.55
2019-04-25T12:38:33.456Z,59.33
2019-04-25T12:39:32.057Z,59.33
2019-04-25T12:40:32.158Z,57.86
2019-04-25T12:41:32.317Z,58.59
2019-04-25T12:42:34.271Z,61.77
2019-04-25T12:43:33.917Z,57.86
2019-04-25T12:44:33.034Z,58.59
2019-04-25T12:45:34.268Z,62.01
2019-04-25T12:46:34.797Z,57.13
2019-04-25T12:47:34.359Z,57.62
2019-04-25T12:48:34.093Z,58.84
2019-04-25T12:49:34.499Z,59.08
2019-04-25T12:50:34.053Z,58.59
2019-04-25T12:51:34.779Z,61.28
2019-04-25T12:52:34.733Z,59.81
2019-04-25T12:53:35.134Z,61.52
2019-04-25T12:54:34.703Z,62.01